Time;durP1;ratioP1;P1;durP2;ratioP2;P2;SDS_P1;SDS_P2;PMS_P1;PMS_P2;Temp;Humidity;BMP_temperature;BMP_pressure;BME280_temperature;BME280_humidity;BME280_pressure;Samples;Min_cycle;Max_cycle;Signal;HPM_P1;HPM_P2
2022/09/17 00:13:55;;;;;;;;;;;;;;;;;;;;;
2022/09/17 00:16:31;;;;;;;;;;;18.00;99.90;;;;;;4972227;28;20262;-78
2022/09/17 00:19:17;;;;;;;;;;;18.00;99.90;;;;;;4979851;28;19910;-78
2022/09/17 00:21:53;;;;;;;;;;;18.00;99.90;;;;;;5016373;28;19909;-77
2022/09/17 00:24:58;;;;;;;;;;;;;;;;;;;;;
2022/09/17 00:37:17;;;;;;;;;;;;;;;;;;;;;
2022/09/17 00:39:43;;;;;;;;;;;18.00;99.90;;;;;;4886284;29;20026;-80
2022/09/17 00:42:11;;;;;;;;;;;18.00;99.90;;;;;;4922629;28;20368;-78
2022/09/17 00:45:12;;;;;;;;;;;18.00;99.90;;;;;;4988361;28;20514;-78
2022/09/17 00:48:01;;;;;;;;;;;18.00;99.90;;;;;;5029346;28;19959;-77
2022/09/17 00:50:49;;;;;;;;;;;18.00;99.90;;;;;;5030346;28;19904;-77
2022/09/17 00:53:29;;;;;;;;;;;;;;;;;;;;;
2022/09/17 00:56:21;;;;;;;;;;;18.00;99.90;;;;;;5033651;28;19990;-78
2022/09/17 00:58:57;;;;;;;;;;;17.90;99.90;;;;;;5026839;28;19913;-77
2022/09/17 01:07:32;;;;;;;;;;;17.80;99.90;;;;;;4960074;28;19949;-78
2022/09/17 01:10:16;;;;;;;;;;;17.80;99.90;;;;;;5022654;28;19951;-78
2022/09/17 01:12:44;;;;;;;;;;;17.70;99.90;;;;;;5033438;28;19913;-79
2022/09/17 01:15:28;;;;;;;;;;;17.80;99.90;;;;;;5036285;28;19913;-78
2022/09/17 01:18:13;;;;;;;;;;;17.80;99.90;;;;;;5019363;28;19916;-78
2022/09/17 01:39:53;;;;;;;;;;;17.70;99.90;;;;;;4851559;29;19916;-77
2022/09/17 01:45:55;;;;;;;;;;;17.60;99.90;;;;;;4913745;29;19919;-77
2022/09/17 01:51:48;;;;;;;;;;;17.60;99.90;;;;;;4947126;29;20625;-78
2022/09/17 01:54:45;;;;;;;;;;;17.60;99.90;;;;;;4961531;29;19937;-78
2022/09/17 02:03:55;;;;;;;;;;;;;;;;;;;;;
2022/09/17 02:06:42;;;;;;;;;;;17.70;99.90;;;;;;4958202;28;20443;-78
2022/09/17 02:09:41;;;;;;;;;;;;;;;;;;;;;
2022/09/17 02:18:52;;;;;;;;;;;17.50;99.90;;;;;;4912952;29;20016;-78
2022/09/17 02:39:53;;;;;;;;;;;16.20;99.90;;;;;;4932075;29;20474;-78
2022/09/17 02:49:07;;;;;;;;;;;;;;;;;;;;;
2022/09/17 02:57:48;;;;;;;;;;;16.30;99.90;;;;;;4956755;29;19957;-78
2022/09/17 03:00:22;;;;;;;;;;;16.30;99.90;;;;;;4945739;29;20011;-78
2022/09/17 03:03:12;;;;;;;;;;;16.20;99.90;;;;;;4976165;28;20291;-78
2022/09/17 03:08:39;;;;;;;;;;;15.70;99.90;;;;;;5031774;28;19920;-78
2022/09/17 03:11:05;;;;;;;;;;;15.70;99.90;;;;;;5033703;28;20016;-78
2022/09/17 03:13:49;;;;;;;;;;;15.70;99.90;;;;;;5042541;28;19909;-78
2022/09/17 03:16:14;;;;;;;;;;;15.60;99.90;;;;;;5038728;28;19905;-78
2022/09/17 03:18:41;;;;;;;;;;;15.60;99.90;;;;;;5037250;28;20433;-78
2022/09/17 03:21:11;;;;;;;;;;;15.50;99.90;;;;;;5019824;28;19905;-79
2022/09/17 03:23:46;;;;;;;;;;;15.60;99.90;;;;;;5035295;28;19982;-78
2022/09/17 03:26:26;;;;;;;;;;;15.60;99.90;;;;;;5034271;28;19913;-78
2022/09/17 03:28:55;;;;;;;;;;;15.50;99.90;;;;;;5036020;28;19911;-78
2022/09/17 03:31:25;;;;;;;;;;;15.10;99.90;;;;;;5037092;28;19909;-79
2022/09/17 03:33:51;;;;;;;;;;;14.90;99.90;;;;;;5038717;28;19916;-78
2022/09/17 03:36:17;;;;;;;;;;;14.80;99.90;;;;;;5037056;28;19905;-79
2022/09/17 03:38:43;;;;;;;;;;;14.80;99.90;;;;;;5037096;28;19912;-79
2022/09/17 03:41:08;;;;;;;;;;;14.60;99.90;;;;;;5037491;28;20379;-78
2022/09/17 03:43:34;;;;;;;;;;;14.50;99.90;;;;;;5038401;28;19948;-79
2022/09/17 03:46:00;;;;;;;;;;;14.40;99.90;;;;;;5037318;28;19916;-78
2022/09/17 03:48:26;;;;;;;;;;;14.40;99.90;;;;;;5035255;28;20435;-79
2022/09/17 03:50:51;;;;;;;;;;;14.30;99.90;;;;;;5019428;28;19908;-79
2022/09/17 03:53:17;;;;;;;;;;;14.40;99.90;;;;;;5018436;28;19920;-78
2022/09/17 03:55:43;;;;;;;;;;;14.30;99.90;;;;;;5035462;28;20055;-79
2022/09/17 03:58:09;;;;;;;;;;;14.40;99.90;;;;;;5035611;28;20035;-78
2022/09/17 04:00:38;;;;;;;;;;;14.40;99.90;;;;;;5037392;28;20379;-79
2022/09/17 04:03:04;;;;;;;;;;;14.50;99.90;;;;;;5036875;28;19967;-79
2022/09/17 04:05:30;;;;;;;;;;;14.40;99.90;;;;;;5037484;28;19909;-78
2022/09/17 04:07:56;;;;;;;;;;;14.40;99.90;;;;;;5018985;28;19913;-78
2022/09/17 04:10:34;;;;;;;;;;;;;;;;;;;;;
2022/09/17 04:13:00;;;;;;;;;;;14.40;99.90;;;;;;5035640;28;20000;-78
2022/09/17 04:15:26;;;;;;;;;;;14.30;99.90;;;;;;5035808;28;19948;-78
2022/09/17 04:17:58;;;;;;;;;;;14.30;99.90;;;;;;5014162;28;20370;-78
2022/09/17 04:20:24;;;;;;;;;;;14.30;99.90;;;;;;5029334;28;19928;-78
2022/09/17 04:22:50;;;;;;;;;;;14.30;99.90;;;;;;5035333;28;19909;-78
2022/09/17 04:25:16;;;;;;;;;;;14.30;99.90;;;;;;5017380;28;19913;-78
2022/09/17 04:27:43;;;;;;;;;;;14.30;99.90;;;;;;5031340;28;19917;-78
2022/09/17 04:30:09;;;;;;;;;;;14.30;99.90;;;;;;5017474;28;19940;-78
2022/09/17 04:32:35;;;;;;;;;;;14.40;99.90;;;;;;5035504;28;19947;-78
2022/09/17 04:35:04;;;;;;;;;;;14.40;99.90;;;;;;5034149;28;19909;-79
2022/09/17 04:37:30;;;;;;;;;;;14.40;99.90;;;;;;5032085;28;19913;-78
2022/09/17 04:39:55;;;;;;;;;;;14.40;99.90;;;;;;5033989;28;20428;-78
2022/09/17 04:42:21;;;;;;;;;;;14.50;99.90;;;;;;5033639;28;19909;-79
2022/09/17 04:44:47;;;;;;;;;;;14.50;99.90;;;;;;5033834;28;19909;-78
2022/09/17 04:47:21;;;;;;;;;;;14.60;99.90;;;;;;5031679;28;19917;-78
2022/09/17 04:49:46;;;;;;;;;;;14.70;99.90;;;;;;5016018;28;19909;-79
2022/09/17 04:52:12;;;;;;;;;;;14.70;99.90;;;;;;5036973;28;19913;-79
2022/09/17 04:54:38;;;;;;;;;;;14.70;99.90;;;;;;5036027;28;19932;-79
2022/09/17 04:57:09;;;;;;;;;;;14.70;99.90;;;;;;5047535;28;19917;-78
2022/09/17 04:59:35;;;;;;;;;;;14.70;99.90;;;;;;5045020;28;19932;-78
2022/09/17 05:02:01;;;;;;;;;;;14.70;99.90;;;;;;5020209;28;19920;-78
2022/09/17 05:04:27;;;;;;;;;;;14.60;99.90;;;;;;5020054;28;20476;-78
2022/09/17 05:06:56;;;;;;;;;;;14.70;99.90;;;;;;5038110;28;19909;-79
2022/09/17 05:09:32;;;;;;;;;;;;;;;;;;;;;
2022/09/17 05:12:00;;;;;;;;;;;14.70;99.90;;;;;;5038054;28;20003;-79
2022/09/17 05:14:28;;;;;;;;;;;14.70;99.90;;;;;;5039129;28;19905;-79
2022/09/17 05:16:59;;;;;;;;;;;14.70;99.90;;;;;;5029855;28;19909;-78
2022/09/17 05:19:27;;;;;;;;;;;14.70;99.90;;;;;;5037423;28;19976;-78
2022/09/17 05:24:48;;;;;;;;;;;14.60;99.90;;;;;;5006077;28;19978;-78
2022/09/17 05:27:14;;;;;;;;;;;14.60;99.90;;;;;;5027131;28;19917;-78
2022/09/17 05:30:00;;;;;;;;;;;14.50;99.90;;;;;;5027772;28;19917;-78
2022/09/17 05:32:28;;;;;;;;;;;14.60;99.90;;;;;;5027281;28;20006;-78
2022/09/17 05:34:57;;;;;;;;;;;14.60;99.90;;;;;;5028798;28;19909;-78
2022/09/17 05:37:28;;;;;;;;;;;14.60;99.90;;;;;;5012879;28;19940;-79
2022/09/17 05:40:00;;;;;;;;;;;14.70;99.90;;;;;;4933858;28;2776643;-78
2022/09/17 05:42:42;;;;;;;;;;;14.80;99.90;;;;;;5030842;28;20015;-78
2022/09/17 05:48:27;;;;;;;;;;;;;;;;;;;;;
2022/09/17 05:50:56;;;;;;;;;;;14.50;99.90;;;;;;5016700;28;20010;-78
2022/09/17 05:53:34;;;;;;;;;;;14.40;99.90;;;;;;5017016;28;19960;-78
2022/09/17 05:56:03;;;;;;;;;;;14.50;99.90;;;;;;5016433;28;20006;-78
2022/09/17 05:58:34;;;;;;;;;;;14.60;99.90;;;;;;5019005;28;19909;-79
2022/09/17 06:01:00;;;;;;;;;;;14.60;99.90;;;;;;5038862;28;19909;-79
2022/09/17 06:03:26;;;;;;;;;;;14.70;99.90;;;;;;5022593;28;19951;-79
2022/09/17 06:05:57;;;;;;;;;;;14.60;99.90;;;;;;5039334;28;19913;-79
2022/09/17 06:08:26;;;;;;;;;;;14.40;99.90;;;;;;5035590;28;19909;-79
2022/09/17 06:10:52;;;;;;;;;;;14.40;99.90;;;;;;5037355;28;19944;-79
2022/09/17 06:13:26;;;;;;;;;;;14.30;99.90;;;;;;5039799;28;19963;-78
2022/09/17 06:15:52;;;;;;;;;;;14.30;99.90;;;;;;5016466;28;19905;-79
2022/09/17 06:18:18;;;;;;;;;;;14.10;99.90;;;;;;5038282;28;19916;-78
2022/09/17 06:20:58;;;;;;;;;;;13.80;99.90;;;;;;5032600;28;19910;-79
2022/09/17 06:23:24;;;;;;;;;;;13.60;99.90;;;;;;5031972;28;19959;-78
2022/09/17 06:25:51;;;;;;;;;;;13.50;99.90;;;;;;5033133;28;19913;-80
2022/09/17 06:28:17;;;;;;;;;;;13.40;99.90;;;;;;5014240;28;19909;-79
2022/09/17 06:30:43;;;;;;;;;;;13.30;99.90;;;;;;5015426;28;19909;-79
2022/09/17 06:33:08;;;;;;;;;;;13.20;99.90;;;;;;5013721;28;20054;-78
2022/09/17 06:35:34;;;;;;;;;;;13.20;99.90;;;;;;5031592;28;20377;-78
2022/09/17 06:38:03;;;;;;;;;;;13.20;99.90;;;;;;5031573;28;19909;-78
2022/09/17 06:40:28;;;;;;;;;;;13.10;99.90;;;;;;5031625;28;20421;-78
2022/09/17 06:42:58;;;;;;;;;;;13.10;99.90;;;;;;5034324;28;19935;-78
2022/09/17 06:45:24;;;;;;;;;;;12.90;99.90;;;;;;5034093;28;19913;-77
2022/09/17 06:47:50;;;;;;;;;;;12.80;99.90;;;;;;5033134;28;19909;-80
2022/09/17 06:50:16;;;;;;;;;;;12.80;99.90;;;;;;5015239;28;19963;-78
2022/09/17 06:52:49;;;;;;;;;;;12.80;99.90;;;;;;5029290;28;20378;-77
2022/09/17 06:55:15;;;;;;;;;;;12.80;99.90;;;;;;5030464;28;19913;-77
2022/09/17 06:57:40;;;;;;;;;;;12.70;99.90;;;;;;5027892;28;19909;-78
2022/09/17 07:00:07;;;;;;;;;;;12.60;99.90;;;;;;5033038;28;19909;-77
2022/09/17 07:02:33;;;;;;;;;;;12.60;99.90;;;;;;5029137;28;19935;-78
2022/09/17 07:04:58;;;;;;;;;;;12.50;99.90;;;;;;5029884;28;19913;-78
2022/09/17 07:07:24;;;;;;;;;;;12.50;99.90;;;;;;5029512;28;19917;-78
2022/09/17 07:09:52;;;;;;;;;;;12.40;99.90;;;;;;5015247;28;19919;-79
2022/09/17 07:12:18;;;;;;;;;;;12.30;99.90;;;;;;5038543;28;19940;-78
2022/09/17 07:14:51;;;;;;;;;;;12.30;99.90;;;;;;5032843;28;19925;-79
2022/09/17 07:17:17;;;;;;;;;;;12.40;99.90;;;;;;5035199;28;19909;-78
2022/09/17 07:19:43;;;;;;;;;;;12.40;99.90;;;;;;5037045;28;19916;-78
2022/09/17 07:22:09;;;;;;;;;;;12.40;99.90;;;;;;5026104;28;19939;-77
2022/09/17 07:24:35;;;;;;;;;;;12.40;99.90;;;;;;5029456;28;20278;-77
2022/09/17 07:27:00;;;;;;;;;;;12.40;99.90;;;;;;5025309;28;19961;-78
2022/09/17 07:29:27;;;;;;;;;;;12.40;99.90;;;;;;5026357;28;19906;-79
2022/09/17 07:31:53;;;;;;;;;;;12.40;99.90;;;;;;5024781;28;20368;-80
2022/09/17 07:34:18;;;;;;;;;;;12.30;99.90;;;;;;5024361;28;19909;-77
2022/09/17 07:36:45;;;;;;;;;;;12.30;99.90;;;;;;5027596;28;19970;-77
2022/09/17 07:39:12;;;;;;;;;;;12.40;99.90;;;;;;5028059;28;19920;-78
2022/09/17 07:41:38;;;;;;;;;;;12.40;99.90;;;;;;5032584;28;19952;-77
2022/09/17 07:44:14;;;;;;;;;;;12.30;99.90;;;;;;5026528;28;19912;-77
2022/09/17 07:46:40;;;;;;;;;;;12.30;99.90;;;;;;5026286;28;19909;-77
2022/09/17 07:49:05;;;;;;;;;;;12.30;99.90;;;;;;5027653;28;19917;-77
2022/09/17 07:51:31;;;;;;;;;;;12.30;99.90;;;;;;5030716;28;19912;-73
2022/09/17 07:53:58;;;;;;;;;;;12.20;99.90;;;;;;5029175;28;20008;-73
2022/09/17 07:56:24;;;;;;;;;;;12.30;99.90;;;;;;5026947;28;19909;-74
2022/09/17 07:58:50;;;;;;;;;;;12.30;99.90;;;;;;5027932;28;19909;-75
2022/09/17 08:01:16;;;;;;;;;;;12.20;99.90;;;;;;5008932;28;19913;-74
2022/09/17 08:03:46;;;;;;;;;;;12.30;99.90;;;;;;5030972;28;19913;-74
2022/09/17 08:06:13;;;;;;;;;;;12.40;99.90;;;;;;5029230;28;19920;-75
2022/09/17 08:08:39;;;;;;;;;;;12.40;99.90;;;;;;5026102;28;20387;-76
2022/09/17 08:11:09;;;;;;;;;;;12.40;99.90;;;;;;5025694;28;19909;-74
2022/09/17 08:13:35;;;;;;;;;;;12.30;99.90;;;;;;5028611;28;19916;-75
2022/09/17 08:16:02;;;;;;;;;;;12.20;99.90;;;;;;5023984;28;19909;-75
2022/09/17 08:18:28;;;;;;;;;;;12.20;99.90;;;;;;5033101;28;20285;-75
2022/09/17 08:20:58;;;;;;;;;;;12.20;99.90;;;;;;5034170;28;19916;-76
2022/09/17 08:23:24;;;;;;;;;;;12.20;99.90;;;;;;5015549;28;19948;-74
2022/09/17 08:25:53;;;;;;;;;;;12.30;99.90;;;;;;5024710;28;19910;-75
2022/09/17 08:28:19;;;;;;;;;;;12.30;99.90;;;;;;5005929;28;19905;-74
2022/09/17 08:30:47;;;;;;;;;;;12.30;99.90;;;;;;5023523;28;19905;-75
2022/09/17 08:33:12;;;;;;;;;;;12.30;99.90;;;;;;5024519;28;19916;-74
2022/09/17 08:35:38;;;;;;;;;;;12.40;99.90;;;;;;5029465;28;19921;-74
2022/09/17 08:38:04;;;;;;;;;;;12.40;99.90;;;;;;5031189;28;20011;-74
2022/09/17 08:40:30;;;;;;;;;;;12.40;99.90;;;;;;5016985;28;19931;-75
2022/09/17 08:43:00;;;;;;;;;;;12.40;99.90;;;;;;5032813;28;20389;-75
2022/09/17 08:45:26;;;;;;;;;;;12.40;99.90;;;;;;5034546;28;19915;-76
2022/09/17 08:47:54;;;;;;;;;;;12.50;99.90;;;;;;5016501;28;19996;-78
2022/09/17 08:50:30;;;;;;;;;;;12.50;99.90;;;;;;5039480;28;20290;-75
2022/09/17 08:53:14;;;;;;;;;;;12.50;99.90;;;;;;5018516;28;19916;-77
2022/09/17 08:55:52;;;;;;;;;;;12.50;99.90;;;;;;5040789;28;20390;-75
2022/09/17 08:58:39;;;;;;;;;;;12.60;99.90;;;;;;5046728;28;19982;-74
2022/09/17 09:01:23;;;;;;;;;;;12.60;99.90;;;;;;5041587;28;19912;-78
2022/09/17 09:04:08;;;;;;;;;;;12.70;99.90;;;;;;5018289;28;20420;-75
2022/09/17 09:06:36;;;;;;;;;;;12.80;99.90;;;;;;5036763;28;19955;-75
2022/09/17 09:09:05;;;;;;;;;;;12.80;99.90;;;;;;5035708;28;19915;-78
2022/09/17 09:11:31;;;;;;;;;;;12.90;99.90;;;;;;5035917;28;19916;-75
2022/09/17 09:14:10;;;;;;;;;;;12.80;99.90;;;;;;5036285;28;19910;-76
2022/09/17 09:16:38;;;;;;;;;;;12.80;99.90;;;;;;5035118;28;20274;-75
2022/09/17 09:19:18;;;;;;;;;;;12.80;99.90;;;;;;5016421;28;19952;-75
2022/09/17 09:21:50;;;;;;;;;;;13.00;99.90;;;;;;5032326;28;19916;-73
2022/09/17 09:24:23;;;;;;;;;;;13.00;99.90;;;;;;5036531;28;20259;-75
2022/09/17 09:26:55;;;;;;;;;;;13.00;99.90;;;;;;5036129;28;19944;-76
2022/09/17 09:29:39;;;;;;;;;;;13.10;99.90;;;;;;5035770;28;19916;-75
2022/09/17 09:32:05;;;;;;;;;;;13.10;99.90;;;;;;5017844;28;19905;-79
2022/09/17 09:34:32;;;;;;;;;;;13.10;99.90;;;;;;5034891;28;19908;-75
2022/09/17 09:37:10;;;;;;;;;;;13.10;99.90;;;;;;5035585;28;20374;-75
2022/09/17 09:39:38;;;;;;;;;;;13.00;99.90;;;;;;5032318;28;19994;-75
2022/09/17 09:42:08;;;;;;;;;;;13.10;99.90;;;;;;5032041;28;20381;-75
2022/09/17 09:44:34;;;;;;;;;;;13.10;99.90;;;;;;5012228;28;19909;-76
2022/09/17 09:47:09;;;;;;;;;;;13.10;99.90;;;;;;5033144;28;20000;-77
2022/09/17 09:49:53;;;;;;;;;;;13.10;99.90;;;;;;5014488;28;20002;-75
2022/09/17 09:52:37;;;;;;;;;;;13.10;99.90;;;;;;5028543;28;19915;-75
2022/09/17 09:55:03;;;;;;;;;;;13.00;99.90;;;;;;5049302;28;19952;-75
2022/09/17 09:57:41;;;;;;;;;;;13.00;99.90;;;;;;5044237;28;19980;-75
2022/09/17 10:00:25;;;;;;;;;;;13.10;99.90;;;;;;5045716;28;19909;-74
2022/09/17 10:02:54;;;;;;;;;;;13.20;99.90;;;;;;5043726;28;19987;-73
2022/09/17 10:05:19;;;;;;;;;;;13.30;99.90;;;;;;5024713;28;19909;-75
2022/09/17 10:07:45;;;;;;;;;;;13.40;99.90;;;;;;5039015;28;19931;-74
2022/09/17 10:10:11;;;;;;;;;;;13.50;99.90;;;;;;5016403;28;19913;-75
2022/09/17 10:12:37;;;;;;;;;;;13.50;99.90;;;;;;5037498;28;19916;-76
2022/09/17 10:15:21;;;;;;;;;;;13.60;99.90;;;;;;5042196;28;19936;-75
2022/09/17 10:17:47;;;;;;;;;;;13.70;99.90;;;;;;5035691;28;19909;-76
2022/09/17 10:20:14;;;;;;;;;;;13.60;99.90;;;;;;5040290;28;19916;-76
2022/09/17 10:22:43;;;;;;;;;;;13.60;99.90;;;;;;5032308;28;19909;-74
2022/09/17 10:25:27;;;;;;;;;;;13.60;99.90;;;;;;5041087;28;19915;-75
2022/09/17 10:27:53;;;;;;;;;;;13.60;99.90;;;;;;5014719;28;19971;-75
2022/09/17 10:30:39;;;;;;;;;;;13.60;99.90;;;;;;5041428;28;19908;-76
2022/09/17 10:33:22;;;;;;;;;;;13.60;99.90;;;;;;5037413;28;19921;-76
2022/09/17 10:36:14;;;;;;;;;;;13.60;99.90;;;;;;5041198;28;20038;-75
2022/09/17 10:38:42;;;;;;;;;;;13.60;99.90;;;;;;5038223;28;19992;-75
2022/09/17 10:41:14;;;;;;;;;;;13.60;99.90;;;;;;5034685;28;19913;-75
2022/09/17 10:43:49;;;;;;;;;;;13.60;99.90;;;;;;5032367;28;19913;-76
2022/09/17 10:46:16;;;;;;;;;;;13.50;99.90;;;;;;5010411;28;20452;-74
2022/09/17 10:48:43;;;;;;;;;;;13.60;99.90;;;;;;5030087;28;19998;-75
2022/09/17 10:51:10;;;;;;;;;;;13.60;99.90;;;;;;5011814;28;20363;-74
2022/09/17 10:53:54;;;;;;;;;;;13.60;99.90;;;;;;5031185;28;19913;-74
2022/09/17 10:56:28;;;;;;;;;;;13.50;99.90;;;;;;5029880;28;19920;-75
2022/09/17 10:59:12;;;;;;;;;;;13.50;99.90;;;;;;5031001;28;19916;-75
2022/09/17 11:01:53;;;;;;;;;;;13.50;99.90;;;;;;5025323;28;19920;-75
2022/09/17 11:04:31;;;;;;;;;;;13.50;99.90;;;;;;5025031;28;20901;-76
2022/09/17 11:07:29;;;;;;;;;;;13.50;99.90;;;;;;5032927;28;20004;-76
2022/09/17 11:09:57;;;;;;;;;;;13.60;99.90;;;;;;5028323;28;19909;-74
2022/09/17 11:12:29;;;;;;;;;;;13.70;99.90;;;;;;5028966;28;19909;-75
2022/09/17 11:14:58;;;;;;;;;;;13.70;99.90;;;;;;5030863;28;20264;-76
2022/09/17 11:20:59;;;;;;;;;;;13.70;99.90;;;;;;5012511;28;19967;-78
2022/09/17 11:23:28;;;;;;;;;;;13.70;99.90;;;;;;5028819;28;19916;-75
2022/09/17 11:25:57;;;;;;;;;;;13.80;99.90;;;;;;5018193;28;19933;-74
2022/09/17 11:28:38;;;;;;;;;;;13.90;99.90;;;;;;5015860;28;19952;-76
2022/09/17 11:31:04;;;;;;;;;;;13.90;99.90;;;;;;5030789;28;19944;-74
2022/09/17 11:33:44;;;;;;;;;;;13.80;99.90;;;;;;5012065;28;19920;-74
2022/09/17 11:36:36;;;;;;;;;;;13.90;99.90;;;;;;5034121;28;19921;-75
2022/09/17 11:39:33;;;;;;;;;;;13.90;99.90;;;;;;5005785;28;20189;-74
2022/09/17 11:42:02;;;;;;;;;;;13.90;99.90;;;;;;5019106;28;19913;-74
2022/09/17 11:44:32;;;;;;;;;;;13.90;99.90;;;;;;5032847;28;20370;-76
2022/09/17 11:47:29;;;;;;;;;;;14.00;99.90;;;;;;5032468;28;19909;-75
2022/09/17 11:50:10;;;;;;;;;;;14.00;99.90;;;;;;5013856;28;19945;-75
2022/09/17 11:52:46;;;;;;;;;;;14.00;99.90;;;;;;5032703;28;19966;-75
2022/09/17 11:55:21;;;;;;;;;;;14.10;99.90;;;;;;5018063;28;19991;-75
2022/09/17 11:57:49;;;;;;;;;;;14.10;99.90;;;;;;5029423;28;19947;-74
2022/09/17 12:00:18;;;;;;;;;;;14.10;99.90;;;;;;5025074;28;20424;-75
2022/09/17 12:03:05;;;;;;;;;;;14.10;99.90;;;;;;5026660;28;19916;-75
2022/09/17 12:05:42;;;;;;;;;;;14.10;99.90;;;;;;5024948;28;19909;-74
2022/09/17 12:08:14;;;;;;;;;;;14.20;99.90;;;;;;5028942;28;19999;-74
2022/09/17 12:10:46;;;;;;;;;;;14.20;99.90;;;;;;5034177;28;19968;-74
2022/09/17 12:13:16;;;;;;;;;;;14.20;99.90;;;;;;5031254;28;19909;-74
2022/09/17 12:15:44;;;;;;;;;;;14.20;99.90;;;;;;5038876;28;20402;-74
2022/09/17 12:18:15;;;;;;;;;;;14.30;99.90;;;;;;5031745;28;19943;-74
2022/09/17 12:20:44;;;;;;;;;;;14.20;99.90;;;;;;5028318;28;19909;-75
2022/09/17 12:23:14;;;;;;;;;;;14.20;99.90;;;;;;5036649;28;20005;-74
2022/09/17 12:25:48;;;;;;;;;;;14.10;99.90;;;;;;5030549;28;19917;-74
2022/09/17 12:28:20;;;;;;;;;;;14.00;99.90;;;;;;5027962;28;19909;-74
2022/09/17 12:31:01;;;;;;;;;;;13.90;99.90;;;;;;5041396;28;19913;-74
2022/09/17 12:33:45;;;;;;;;;;;13.80;99.90;;;;;;5042541;28;19999;-76
2022/09/17 12:36:11;;;;;;;;;;;13.80;99.90;;;;;;5012436;28;19924;-75
2022/09/17 12:38:48;;;;;;;;;;;13.80;99.90;;;;;;5038824;28;19948;-74
2022/09/17 12:41:25;;;;;;;;;;;13.80;99.90;;;;;;5041051;28;20003;-74
2022/09/17 12:43:54;;;;;;;;;;;13.90;99.90;;;;;;5032700;28;19905;-74
2022/09/17 12:46:26;;;;;;;;;;;13.80;99.90;;;;;;5046702;28;20023;-75
2022/09/17 12:49:11;;;;;;;;;;;13.90;99.90;;;;;;5016583;28;19963;-74
2022/09/17 12:51:49;;;;;;;;;;;14.00;99.90;;;;;;5032879;28;20328;-74
2022/09/17 12:54:20;;;;;;;;;;;13.90;99.90;;;;;;5038037;28;19934;-74
2022/09/17 12:56:46;;;;;;;;;;;13.90;99.90;;;;;;5048593;28;19909;-75
2022/09/17 12:59:16;;;;;;;;;;;14.00;99.90;;;;;;5035381;28;19916;-75
2022/09/17 13:01:54;;;;;;;;;;;14.00;99.90;;;;;;5036557;28;20426;-73
2022/09/17 13:04:58;;;;;;;;;;;14.10;99.90;;;;;;5034702;28;19926;-75
2022/09/17 13:07:33;;;;;;;;;;;14.20;99.90;;;;;;4980979;28;20307;-71
2022/09/17 13:10:09;;;;;;;;;;;14.30;99.90;;;;;;5034179;28;20448;-71
2022/09/17 13:12:35;;;;;;;;;;;14.30;99.90;;;;;;5030326;28;19916;-72
2022/09/17 13:15:16;;;;;;;;;;;14.40;99.90;;;;;;5030644;28;19909;-71
2022/09/17 13:17:57;;;;;;;;;;;14.60;99.90;;;;;;5030042;28;19951;-71
2022/09/17 13:20:30;;;;;;;;;;;14.70;99.90;;;;;;5042490;28;20266;-72
2022/09/17 13:22:57;;;;;;;;;;;15.00;99.90;;;;;;5038709;28;19905;-71
2022/09/17 13:25:26;;;;;;;;;;;15.20;99.90;;;;;;5036351;28;19916;-72
2022/09/17 13:28:03;;;;;;;;;;;15.20;99.90;;;;;;5036907;28;19909;-71
2022/09/17 13:30:49;;;;;;;;;;;15.20;99.90;;;;;;5032495;28;19913;-71
2022/09/17 13:33:35;;;;;;;;;;;15.50;99.90;;;;;;5038576;28;19913;-71
2022/09/17 13:36:26;;;;;;;;;;;15.60;99.90;;;;;;5015281;28;19917;-71
2022/09/17 13:38:52;;;;;;;;;;;15.80;99.90;;;;;;5034776;28;19913;-71
2022/09/17 13:41:27;;;;;;;;;;;15.90;99.90;;;;;;5032836;28;19935;-71
2022/09/17 13:43:54;;;;;;;;;;;16.00;99.90;;;;;;5032495;28;19912;-71
2022/09/17 13:46:22;;;;;;;;;;;16.00;99.90;;;;;;5031037;28;19909;-72
2022/09/17 13:48:49;;;;;;;;;;;16.10;99.90;;;;;;5034994;28;19905;-74
2022/09/17 13:51:30;;;;;;;;;;;15.90;99.90;;;;;;5030860;28;20325;-76
2022/09/17 13:53:57;;;;;;;;;;;15.80;99.90;;;;;;5033650;28;20355;-76
2022/09/17 13:56:31;;;;;;;;;;;15.80;99.90;;;;;;5024709;28;19913;-75
2022/09/17 13:59:08;;;;;;;;;;;15.90;99.90;;;;;;5031294;28;20310;-78
2022/09/17 14:02:01;;;;;;;;;;;15.90;99.90;;;;;;5029022;28;19917;-75
2022/09/17 14:05:00;;;;;;;;;;;16.10;99.90;;;;;;5029273;28;20027;-75
2022/09/17 14:07:29;;;;;;;;;;;16.30;99.90;;;;;;5029521;28;20338;-76
2022/09/17 14:10:13;;;;;;;;;;;16.80;99.90;;;;;;5032873;28;19905;-74
2022/09/17 14:12:57;;;;;;;;;;;17.10;99.90;;;;;;5031921;28;19909;-75
2022/09/17 14:15:40;;;;;;;;;;;17.20;99.90;;;;;;5028287;28;19920;-74
2022/09/17 14:18:25;;;;;;;;;;;17.20;99.90;;;;;;5033321;28;20402;-75
2022/09/17 14:20:53;;;;;;;;;;;17.20;99.90;;;;;;5027065;28;19909;-74
2022/09/17 14:23:18;;;;;;;;;;;17.60;99.90;;;;;;5032274;28;19995;-75
2022/09/17 14:25:48;;;;;;;;;;;17.70;99.90;;;;;;5034313;28;19943;-76
2022/09/17 14:28:17;;;;;;;;;;;17.80;99.90;;;;;;5033527;28;19971;-77
2022/09/17 14:30:45;;;;;;;;;;;17.80;99.90;;;;;;5030696;28;19919;-76
2022/09/17 14:33:18;;;;;;;;;;;18.20;99.90;;;;;;5031916;28;19995;-77
2022/09/17 14:35:49;;;;;;;;;;;18.60;99.90;;;;;;5033114;28;19921;-77
2022/09/17 14:38:20;;;;;;;;;;;18.90;99.90;;;;;;5028312;28;19909;-76
2022/09/17 14:40:47;;;;;;;;;;;18.90;99.90;;;;;;5034047;28;20059;-75
2022/09/17 14:43:32;;;;;;;;;;;18.80;99.90;;;;;;5032992;28;19962;-75
2022/09/17 14:45:57;;;;;;;;;;;18.70;99.90;;;;;;5031879;28;19944;-75
2022/09/17 14:48:28;;;;;;;;;;;18.80;99.90;;;;;;5035933;28;19921;-76
2022/09/17 14:51:28;;;;;;;;;;;19.00;99.90;;;;;;5035954;28;19916;-75
2022/09/17 14:54:23;;;;;;;;;;;18.90;99.90;;;;;;5032723;28;19909;-74
2022/09/17 14:56:59;;;;;;;;;;;18.80;99.90;;;;;;5031031;28;19909;-75
2022/09/17 14:59:44;;;;;;;;;;;18.30;99.90;;;;;;5026772;28;19909;-76
2022/09/17 15:02:26;;;;;;;;;;;18.00;99.90;;;;;;5033134;28;19920;-74
2022/09/17 15:04:52;;;;;;;;;;;18.00;99.90;;;;;;5039432;28;19913;-76
2022/09/17 15:07:21;;;;;;;;;;;18.20;99.90;;;;;;5032303;28;20001;-74
2022/09/17 15:09:49;;;;;;;;;;;18.20;99.90;;;;;;5038156;28;20333;-74
2022/09/17 15:12:16;;;;;;;;;;;18.30;99.90;;;;;;5034682;28;20358;-76
2022/09/17 15:14:42;;;;;;;;;;;18.40;99.90;;;;;;5031364;28;20325;-75
2022/09/17 15:17:12;;;;;;;;;;;18.50;99.90;;;;;;5041906;28;19909;-76
2022/09/17 15:19:42;;;;;;;;;;;18.50;99.90;;;;;;5039207;28;20390;-73
2022/09/17 15:22:15;;;;;;;;;;;18.20;99.90;;;;;;5030544;28;19917;-74
2022/09/17 15:24:49;;;;;;;;;;;18.00;99.90;;;;;;5040223;28;19919;-73
2022/09/17 15:27:23;;;;;;;;;;;17.80;99.90;;;;;;5013470;28;19915;-74
2022/09/17 15:29:51;;;;;;;;;;;17.70;99.90;;;;;;5028908;28;19913;-73
2022/09/17 15:32:17;;;;;;;;;;;17.80;99.90;;;;;;5031506;28;19967;-74
2022/09/17 15:34:43;;;;;;;;;;;17.80;99.90;;;;;;5033700;28;19909;-74
2022/09/17 15:37:19;;;;;;;;;;;17.80;99.90;;;;;;5029818;28;19924;-74
2022/09/17 15:39:49;;;;;;;;;;;17.80;99.90;;;;;;5025826;28;19960;-76
2022/09/17 15:42:31;;;;;;;;;;;18.00;99.90;;;;;;5026920;28;19909;-74
2022/09/17 15:45:07;;;;;;;;;;;17.80;99.90;;;;;;5026254;28;19928;-73
2022/09/17 15:47:34;;;;;;;;;;;17.60;99.90;;;;;;5010793;28;19935;-74
2022/09/17 15:50:05;;;;;;;;;;;17.50;99.90;;;;;;5027427;28;19916;-74
2022/09/17 15:52:34;;;;;;;;;;;17.40;99.90;;;;;;5030124;28;19920;-73
2022/09/17 15:55:00;;;;;;;;;;;17.30;99.90;;;;;;5037954;28;19913;-73
2022/09/17 15:57:28;;;;;;;;;;;17.40;99.90;;;;;;5029450;28;20003;-74
2022/09/17 15:59:54;;;;;;;;;;;17.40;99.90;;;;;;5031959;28;19919;-73
2022/09/17 16:02:30;;;;;;;;;;;17.40;99.90;;;;;;5025920;28;19913;-73
2022/09/17 16:05:15;;;;;;;;;;;17.50;99.90;;;;;;5029902;28;19909;-74
2022/09/17 16:07:41;;;;;;;;;;;17.60;99.90;;;;;;5030226;28;19909;-74
2022/09/17 16:10:10;;;;;;;;;;;17.80;99.90;;;;;;5030806;28;19924;-74
2022/09/17 16:12:36;;;;;;;;;;;17.90;99.90;;;;;;5024693;28;20670;-74
2022/09/17 16:15:02;;;;;;;;;;;18.00;99.90;;;;;;5039076;28;20011;-74
2022/09/17 16:17:34;;;;;;;;;;;18.00;99.90;;;;;;5032089;28;20004;-73
2022/09/17 16:20:05;;;;;;;;;;;18.00;99.90;;;;;;5030611;28;20308;-73
2022/09/17 16:22:31;;;;;;;;;;;18.00;99.90;;;;;;5031883;28;19909;-73
2022/09/17 16:24:56;;;;;;;;;;;17.70;99.90;;;;;;5038045;28;19916;-74
2022/09/17 16:27:25;;;;;;;;;;;17.60;99.90;;;;;;5021466;28;19913;-75
2022/09/17 16:29:54;;;;;;;;;;;17.50;99.90;;;;;;5030215;28;20011;-74
2022/09/17 16:32:20;;;;;;;;;;;17.20;99.90;;;;;;5011821;28;20226;-73
2022/09/17 16:34:46;;;;;;;;;;;17.10;99.90;;;;;;5029998;28;20008;-74
2022/09/17 16:37:11;;;;;;;;;;;17.00;99.90;;;;;;5032666;28;19963;-74
2022/09/17 16:39:37;;;;;;;;;;;17.00;99.90;;;;;;5034766;28;20378;-73
2022/09/17 16:42:08;;;;;;;;;;;16.90;99.90;;;;;;5043161;28;19905;-74
2022/09/17 16:44:34;;;;;;;;;;;16.80;99.90;;;;;;5026397;28;19909;-74
2022/09/17 16:47:00;;;;;;;;;;;16.70;99.90;;;;;;5043337;28;20362;-74